sensor_id;sensor_type;location;lat;lon;timestamp;P1;durP1;ratioP1;P2;durP2;ratioP2
19623;SDS011;9959;49.798;9.928;2023-02-13T00:00:45;60.78;;;24.52;;
19623;SDS011;9959;49.798;9.928;2023-02-13T00:03:12;80.55;;;25.75;;
19623;SDS011;9959;49.798;9.928;2023-02-13T00:05:40;71.32;;;26.33;;
19623;SDS011;9959;49.798;9.928;2023-02-13T00:08:07;65.15;;;24.20;;
19623;SDS011;9959;49.798;9.928;2023-02-13T00:10:34;71.00;;;25.52;;
19623;SDS011;9959;49.798;9.928;2023-02-13T00:13:02;63.42;;;23.83;;
19623;SDS011;9959;49.798;9.928;2023-02-13T00:15:29;67.65;;;24.10;;
19623;SDS011;9959;49.798;9.928;2023-02-13T00:17:55;62.15;;;25.17;;
19623;SDS011;9959;49.798;9.928;2023-02-13T00:20:22;61.78;;;24.05;;
19623;SDS011;9959;49.798;9.928;2023-02-13T00:22:49;62.70;;;24.13;;
19623;SDS011;9959;49.798;9.928;2023-02-13T00:25:16;66.05;;;24.55;;
19623;SDS011;9959;49.798;9.928;2023-02-13T00:27:43;78.40;;;28.17;;
19623;SDS011;9959;49.798;9.928;2023-02-13T00:30:10;69.03;;;25.98;;
19623;SDS011;9959;49.798;9.928;2023-02-13T00:32:37;65.47;;;24.60;;
19623;SDS011;9959;49.798;9.928;2023-02-13T00:35:04;68.10;;;25.25;;
19623;SDS011;9959;49.798;9.928;2023-02-13T00:37:32;69.72;;;26.55;;
19623;SDS011;9959;49.798;9.928;2023-02-13T00:40:02;71.50;;;24.92;;
19623;SDS011;9959;49.798;9.928;2023-02-13T00:42:30;72.32;;;25.35;;
19623;SDS011;9959;49.798;9.928;2023-02-13T00:45:00;83.10;;;27.38;;
19623;SDS011;9959;49.798;9.928;2023-02-13T00:47:27;80.85;;;25.33;;
19623;SDS011;9959;49.798;9.928;2023-02-13T00:52:24;71.10;;;24.50;;
19623;SDS011;9959;49.798;9.928;2023-02-13T00:54:50;69.78;;;25.17;;
19623;SDS011;9959;49.798;9.928;2023-02-13T00:57:17;73.90;;;24.40;;
19623;SDS011;9959;49.798;9.928;2023-02-13T00:59:44;80.05;;;25.60;;
19623;SDS011;9959;49.798;9.928;2023-02-13T01:02:11;60.75;;;23.73;;
19623;SDS011;9959;49.798;9.928;2023-02-13T01:04:41;74.63;;;24.17;;
19623;SDS011;9959;49.798;9.928;2023-02-13T01:07:08;75.10;;;24.08;;
19623;SDS011;9959;49.798;9.928;2023-02-13T01:09:34;68.75;;;22.83;;
19623;SDS011;9959;49.798;9.928;2023-02-13T01:12:01;75.55;;;24.98;;
19623;SDS011;9959;49.798;9.928;2023-02-13T01:14:29;77.20;;;26.38;;
19623;SDS011;9959;49.798;9.928;2023-02-13T01:16:55;85.13;;;26.27;;
19623;SDS011;9959;49.798;9.928;2023-02-13T01:19:22;82.15;;;26.85;;
19623;SDS011;9959;49.798;9.928;2023-02-13T01:21:49;78.65;;;26.80;;
19623;SDS011;9959;49.798;9.928;2023-02-13T01:24:16;78.45;;;26.65;;
19623;SDS011;9959;49.798;9.928;2023-02-13T01:26:43;73.90;;;26.90;;
19623;SDS011;9959;49.798;9.928;2023-02-13T01:29:11;79.38;;;25.50;;
19623;SDS011;9959;49.798;9.928;2023-02-13T01:31:39;71.78;;;25.40;;
19623;SDS011;9959;49.798;9.928;2023-02-13T01:34:05;85.22;;;27.55;;
19623;SDS011;9959;49.798;9.928;2023-02-13T01:36:32;123.45;;;29.83;;
19623;SDS011;9959;49.798;9.928;2023-02-13T01:38:59;105.78;;;28.42;;
19623;SDS011;9959;49.798;9.928;2023-02-13T01:41:26;113.28;;;30.77;;
19623;SDS011;9959;49.798;9.928;2023-02-13T01:44:00;112.63;;;29.55;;
19623;SDS011;9959;49.798;9.928;2023-02-13T01:46:31;87.85;;;26.95;;
19623;SDS011;9959;49.798;9.928;2023-02-13T01:49:03;140.95;;;28.83;;
19623;SDS011;9959;49.798;9.928;2023-02-13T01:51:38;147.00;;;31.40;;
19623;SDS011;9959;49.798;9.928;2023-02-13T01:54:07;133.95;;;31.70;;
19623;SDS011;9959;49.798;9.928;2023-02-13T01:56:48;110.22;;;30.38;;
19623;SDS011;9959;49.798;9.928;2023-02-13T01:59:19;145.50;;;30.85;;
19623;SDS011;9959;49.798;9.928;2023-02-13T02:01:49;133.95;;;30.38;;
19623;SDS011;9959;49.798;9.928;2023-02-13T02:04:21;111.13;;;29.60;;
19623;SDS011;9959;49.798;9.928;2023-02-13T02:06:57;121.00;;;29.90;;
19623;SDS011;9959;49.798;9.928;2023-02-13T02:09:29;120.20;;;32.38;;
19623;SDS011;9959;49.798;9.928;2023-02-13T02:14:49;109.40;;;28.40;;
19623;SDS011;9959;49.798;9.928;2023-02-13T02:17:18;96.53;;;27.52;;
19623;SDS011;9959;49.798;9.928;2023-02-13T02:19:49;124.25;;;30.95;;
19623;SDS011;9959;49.798;9.928;2023-02-13T02:25:18;146.23;;;30.85;;
19623;SDS011;9959;49.798;9.928;2023-02-13T02:36:51;100.20;;;30.27;;
19623;SDS011;9959;49.798;9.928;2023-02-13T02:45:13;97.07;;;28.92;;
19623;SDS011;9959;49.798;9.928;2023-02-13T02:50:52;116.65;;;30.75;;
19623;SDS011;9959;49.798;9.928;2023-02-13T02:53:37;112.72;;;31.45;;
19623;SDS011;9959;49.798;9.928;2023-02-13T02:56:17;117.32;;;30.77;;
19623;SDS011;9959;49.798;9.928;2023-02-13T03:01:41;125.80;;;31.88;;
19623;SDS011;9959;49.798;9.928;2023-02-13T03:04:27;147.13;;;29.60;;
19623;SDS011;9959;49.798;9.928;2023-02-13T03:07:18;147.52;;;27.95;;
19623;SDS011;9959;49.798;9.928;2023-02-13T03:09:47;170.95;;;31.60;;
19623;SDS011;9959;49.798;9.928;2023-02-13T03:12:22;201.43;;;33.92;;
19623;SDS011;9959;49.798;9.928;2023-02-13T03:15:11;205.82;;;32.05;;
19623;SDS011;9959;49.798;9.928;2023-02-13T03:17:38;168.30;;;31.88;;
19623;SDS011;9959;49.798;9.928;2023-02-13T03:23:27;161.40;;;31.05;;
19623;SDS011;9959;49.798;9.928;2023-02-13T03:26:06;139.27;;;30.88;;
19623;SDS011;9959;49.798;9.928;2023-02-13T03:28:51;141.82;;;30.50;;
19623;SDS011;9959;49.798;9.928;2023-02-13T03:31:31;141.43;;;29.88;;
19623;SDS011;9959;49.798;9.928;2023-02-13T03:34:09;137.05;;;30.13;;
19623;SDS011;9959;49.798;9.928;2023-02-13T03:42:10;192.20;;;29.33;;
19623;SDS011;9959;49.798;9.928;2023-02-13T03:45:21;188.07;;;29.83;;
19623;SDS011;9959;49.798;9.928;2023-02-13T03:48:13;186.02;;;28.42;;
19623;SDS011;9959;49.798;9.928;2023-02-13T03:51:25;264.85;;;33.78;;
19623;SDS011;9959;49.798;9.928;2023-02-13T03:54:01;201.80;;;30.23;;
19623;SDS011;9959;49.798;9.928;2023-02-13T03:56:33;155.25;;;28.25;;
19623;SDS011;9959;49.798;9.928;2023-02-13T03:59:25;204.88;;;30.98;;
19623;SDS011;9959;49.798;9.928;2023-02-13T04:02:07;144.68;;;28.50;;
19623;SDS011;9959;49.798;9.928;2023-02-13T04:07:23;173.82;;;30.23;;
19623;SDS011;9959;49.798;9.928;2023-02-13T04:09:58;146.73;;;27.42;;
19623;SDS011;9959;49.798;9.928;2023-02-13T04:12:52;175.90;;;28.30;;
19623;SDS011;9959;49.798;9.928;2023-02-13T04:18:16;204.40;;;29.25;;
19623;SDS011;9959;49.798;9.928;2023-02-13T04:20:55;151.98;;;27.08;;
19623;SDS011;9959;49.798;9.928;2023-02-13T04:23:20;135.25;;;27.83;;
19623;SDS011;9959;49.798;9.928;2023-02-13T04:25:48;125.90;;;25.77;;
19623;SDS011;9959;49.798;9.928;2023-02-13T04:28:20;100.25;;;24.20;;
19623;SDS011;9959;49.798;9.928;2023-02-13T04:30:47;96.28;;;26.90;;
19623;SDS011;9959;49.798;9.928;2023-02-13T04:33:16;134.93;;;29.00;;
19623;SDS011;9959;49.798;9.928;2023-02-13T04:35:42;127.30;;;27.02;;
19623;SDS011;9959;49.798;9.928;2023-02-13T04:38:09;113.75;;;28.95;;
19623;SDS011;9959;49.798;9.928;2023-02-13T04:40:39;103.32;;;26.90;;
19623;SDS011;9959;49.798;9.928;2023-02-13T04:43:07;108.13;;;26.85;;
19623;SDS011;9959;49.798;9.928;2023-02-13T04:45:34;153.43;;;26.85;;
19623;SDS011;9959;49.798;9.928;2023-02-13T04:48:00;111.50;;;26.02;;
19623;SDS011;9959;49.798;9.928;2023-02-13T04:50:27;131.20;;;26.75;;
19623;SDS011;9959;49.798;9.928;2023-02-13T04:52:54;116.70;;;26.92;;
19623;SDS011;9959;49.798;9.928;2023-02-13T04:55:23;96.20;;;24.83;;
19623;SDS011;9959;49.798;9.928;2023-02-13T04:57:52;121.57;;;24.83;;
19623;SDS011;9959;49.798;9.928;2023-02-13T05:00:20;111.03;;;25.55;;
19623;SDS011;9959;49.798;9.928;2023-02-13T05:02:53;80.32;;;23.20;;
19623;SDS011;9959;49.798;9.928;2023-02-13T05:05:23;101.47;;;22.50;;
19623;SDS011;9959;49.798;9.928;2023-02-13T05:07:50;103.43;;;26.63;;
19623;SDS011;9959;49.798;9.928;2023-02-13T05:10:17;109.88;;;21.80;;
19623;SDS011;9959;49.798;9.928;2023-02-13T05:12:43;112.85;;;23.33;;
19623;SDS011;9959;49.798;9.928;2023-02-13T05:15:11;111.03;;;23.38;;
19623;SDS011;9959;49.798;9.928;2023-02-13T05:17:38;153.18;;;25.48;;
19623;SDS011;9959;49.798;9.928;2023-02-13T05:20:05;197.90;;;26.25;;
19623;SDS011;9959;49.798;9.928;2023-02-13T05:22:32;171.07;;;22.48;;
19623;SDS011;9959;49.798;9.928;2023-02-13T05:25:17;150.85;;;23.52;;
19623;SDS011;9959;49.798;9.928;2023-02-13T05:27:44;134.63;;;24.40;;
19623;SDS011;9959;49.798;9.928;2023-02-13T05:30:12;180.07;;;23.75;;
19623;SDS011;9959;49.798;9.928;2023-02-13T05:32:39;122.00;;;23.77;;
19623;SDS011;9959;49.798;9.928;2023-02-13T05:35:08;144.27;;;23.07;;
19623;SDS011;9959;49.798;9.928;2023-02-13T05:37:35;167.65;;;21.95;;
19623;SDS011;9959;49.798;9.928;2023-02-13T05:40:02;79.32;;;20.85;;
19623;SDS011;9959;49.798;9.928;2023-02-13T05:42:32;121.57;;;21.90;;
19623;SDS011;9959;49.798;9.928;2023-02-13T05:44:58;124.20;;;20.73;;
19623;SDS011;9959;49.798;9.928;2023-02-13T05:47:25;124.90;;;20.35;;
19623;SDS011;9959;49.798;9.928;2023-02-13T05:49:52;89.38;;;21.25;;
19623;SDS011;9959;49.798;9.928;2023-02-13T05:52:26;124.03;;;20.67;;
19623;SDS011;9959;49.798;9.928;2023-02-13T05:54:53;162.85;;;21.42;;
19623;SDS011;9959;49.798;9.928;2023-02-13T05:57:20;106.03;;;21.90;;
19623;SDS011;9959;49.798;9.928;2023-02-13T05:59:47;96.50;;;21.55;;
19623;SDS011;9959;49.798;9.928;2023-02-13T06:02:14;145.73;;;19.95;;
19623;SDS011;9959;49.798;9.928;2023-02-13T06:04:42;105.45;;;18.63;;
19623;SDS011;9959;49.798;9.928;2023-02-13T06:07:09;83.60;;;19.25;;
19623;SDS011;9959;49.798;9.928;2023-02-13T06:09:36;109.65;;;19.80;;
19623;SDS011;9959;49.798;9.928;2023-02-13T06:12:03;124.53;;;18.02;;
19623;SDS011;9959;49.798;9.928;2023-02-13T06:14:30;123.93;;;21.08;;
19623;SDS011;9959;49.798;9.928;2023-02-13T06:16:57;147.07;;;20.30;;
19623;SDS011;9959;49.798;9.928;2023-02-13T06:19:26;81.47;;;18.73;;
19623;SDS011;9959;49.798;9.928;2023-02-13T06:21:53;103.22;;;17.88;;
19623;SDS011;9959;49.798;9.928;2023-02-13T06:24:20;94.13;;;18.67;;
19623;SDS011;9959;49.798;9.928;2023-02-13T06:26:46;63.72;;;17.25;;
19623;SDS011;9959;49.798;9.928;2023-02-13T06:29:13;90.38;;;18.13;;
19623;SDS011;9959;49.798;9.928;2023-02-13T06:31:40;110.47;;;16.27;;
19623;SDS011;9959;49.798;9.928;2023-02-13T06:34:07;76.35;;;16.60;;
19623;SDS011;9959;49.798;9.928;2023-02-13T06:36:37;60.65;;;16.30;;
19623;SDS011;9959;49.798;9.928;2023-02-13T06:39:04;55.17;;;16.80;;
19623;SDS011;9959;49.798;9.928;2023-02-13T06:41:31;51.85;;;16.35;;
19623;SDS011;9959;49.798;9.928;2023-02-13T06:43:58;65.32;;;17.15;;
19623;SDS011;9959;49.798;9.928;2023-02-13T06:46:24;81.65;;;17.58;;
19623;SDS011;9959;49.798;9.928;2023-02-13T06:48:51;86.20;;;15.43;;
19623;SDS011;9959;49.798;9.928;2023-02-13T06:51:18;97.40;;;17.38;;
19623;SDS011;9959;49.798;9.928;2023-02-13T06:53:45;78.38;;;19.05;;
19623;SDS011;9959;49.798;9.928;2023-02-13T06:56:11;81.63;;;17.10;;
19623;SDS011;9959;49.798;9.928;2023-02-13T06:58:38;64.20;;;17.45;;
19623;SDS011;9959;49.798;9.928;2023-02-13T07:01:05;91.38;;;17.42;;
19623;SDS011;9959;49.798;9.928;2023-02-13T07:03:32;95.57;;;16.55;;
19623;SDS011;9959;49.798;9.928;2023-02-13T07:05:59;80.28;;;18.15;;
19623;SDS011;9959;49.798;9.928;2023-02-13T07:08:26;73.38;;;17.80;;
19623;SDS011;9959;49.798;9.928;2023-02-13T07:10:53;79.03;;;18.00;;
19623;SDS011;9959;49.798;9.928;2023-02-13T07:13:20;86.38;;;16.90;;
19623;SDS011;9959;49.798;9.928;2023-02-13T07:15:50;54.88;;;14.95;;
19623;SDS011;9959;49.798;9.928;2023-02-13T07:18:17;83.55;;;17.73;;
19623;SDS011;9959;49.798;9.928;2023-02-13T07:20:43;43.65;;;13.13;;
19623;SDS011;9959;49.798;9.928;2023-02-13T07:23:10;48.35;;;14.68;;
19623;SDS011;9959;49.798;9.928;2023-02-13T07:25:37;47.35;;;14.18;;
19623;SDS011;9959;49.798;9.928;2023-02-13T07:28:04;78.93;;;14.95;;
19623;SDS011;9959;49.798;9.928;2023-02-13T07:30:32;59.15;;;14.60;;
19623;SDS011;9959;49.798;9.928;2023-02-13T07:33:00;48.70;;;16.38;;
19623;SDS011;9959;49.798;9.928;2023-02-13T07:35:31;68.28;;;15.00;;
19623;SDS011;9959;49.798;9.928;2023-02-13T07:37:58;78.00;;;15.27;;
19623;SDS011;9959;49.798;9.928;2023-02-13T07:40:26;48.03;;;14.75;;
19623;SDS011;9959;49.798;9.928;2023-02-13T07:42:53;60.75;;;17.00;;
19623;SDS011;9959;49.798;9.928;2023-02-13T07:45:23;42.08;;;14.75;;
19623;SDS011;9959;49.798;9.928;2023-02-13T07:47:50;37.17;;;14.32;;
19623;SDS011;9959;49.798;9.928;2023-02-13T07:50:17;46.83;;;15.05;;
19623;SDS011;9959;49.798;9.928;2023-02-13T07:52:43;46.08;;;14.75;;
19623;SDS011;9959;49.798;9.928;2023-02-13T07:55:10;40.28;;;14.68;;
19623;SDS011;9959;49.798;9.928;2023-02-13T07:57:38;40.63;;;15.35;;
19623;SDS011;9959;49.798;9.928;2023-02-13T08:00:07;43.17;;;15.18;;
19623;SDS011;9959;49.798;9.928;2023-02-13T08:02:37;40.17;;;14.38;;
19623;SDS011;9959;49.798;9.928;2023-02-13T08:05:04;39.15;;;14.93;;
19623;SDS011;9959;49.798;9.928;2023-02-13T08:07:32;36.25;;;14.93;;
19623;SDS011;9959;49.798;9.928;2023-02-13T08:09:59;36.78;;;14.98;;
19623;SDS011;9959;49.798;9.928;2023-02-13T08:12:44;34.78;;;12.77;;
19623;SDS011;9959;49.798;9.928;2023-02-13T08:15:12;45.92;;;14.10;;
19623;SDS011;9959;49.798;9.928;2023-02-13T08:17:40;38.28;;;13.98;;
19623;SDS011;9959;49.798;9.928;2023-02-13T08:20:07;110.65;;;18.15;;
19623;SDS011;9959;49.798;9.928;2023-02-13T08:22:35;86.78;;;16.25;;
19623;SDS011;9959;49.798;9.928;2023-02-13T08:25:03;46.60;;;14.60;;
19623;SDS011;9959;49.798;9.928;2023-02-13T08:27:31;53.53;;;14.73;;
19623;SDS011;9959;49.798;9.928;2023-02-13T08:30:00;43.83;;;15.25;;
19623;SDS011;9959;49.798;9.928;2023-02-13T08:32:28;36.28;;;14.20;;
19623;SDS011;9959;49.798;9.928;2023-02-13T08:34:55;42.78;;;15.60;;
19623;SDS011;9959;49.798;9.928;2023-02-13T08:37:23;47.53;;;18.23;;
19623;SDS011;9959;49.798;9.928;2023-02-13T08:39:49;44.85;;;16.83;;
19623;SDS011;9959;49.798;9.928;2023-02-13T08:42:16;50.92;;;15.93;;
19623;SDS011;9959;49.798;9.928;2023-02-13T08:44:43;37.78;;;14.88;;
19623;SDS011;9959;49.798;9.928;2023-02-13T08:47:10;35.47;;;15.68;;
19623;SDS011;9959;49.798;9.928;2023-02-13T08:49:37;44.25;;;18.92;;
19623;SDS011;9959;49.798;9.928;2023-02-13T08:52:04;49.63;;;18.17;;
19623;SDS011;9959;49.798;9.928;2023-02-13T08:54:32;44.58;;;17.15;;
19623;SDS011;9959;49.798;9.928;2023-02-13T08:57:00;52.97;;;16.65;;
19623;SDS011;9959;49.798;9.928;2023-02-13T08:59:27;47.85;;;17.10;;
19623;SDS011;9959;49.798;9.928;2023-02-13T09:01:55;47.30;;;16.90;;
19623;SDS011;9959;49.798;9.928;2023-02-13T09:04:23;37.45;;;15.57;;
19623;SDS011;9959;49.798;9.928;2023-02-13T09:06:49;42.60;;;17.13;;
19623;SDS011;9959;49.798;9.928;2023-02-13T09:09:16;45.03;;;17.48;;
19623;SDS011;9959;49.798;9.928;2023-02-13T09:11:43;42.20;;;16.60;;
19623;SDS011;9959;49.798;9.928;2023-02-13T09:14:10;46.65;;;18.35;;
19623;SDS011;9959;49.798;9.928;2023-02-13T09:16:36;42.20;;;15.85;;
19623;SDS011;9959;49.798;9.928;2023-02-13T09:19:03;38.03;;;15.95;;
19623;SDS011;9959;49.798;9.928;2023-02-13T09:21:30;43.20;;;15.27;;
19623;SDS011;9959;49.798;9.928;2023-02-13T09:23:57;35.03;;;14.63;;
19623;SDS011;9959;49.798;9.928;2023-02-13T09:26:23;39.17;;;15.80;;
19623;SDS011;9959;49.798;9.928;2023-02-13T09:28:50;44.17;;;17.10;;
19623;SDS011;9959;49.798;9.928;2023-02-13T09:31:18;41.58;;;16.60;;
19623;SDS011;9959;49.798;9.928;2023-02-13T09:33:49;33.60;;;14.18;;
19623;SDS011;9959;49.798;9.928;2023-02-13T09:36:17;34.25;;;13.45;;
19623;SDS011;9959;49.798;9.928;2023-02-13T09:38:46;33.20;;;13.55;;
19623;SDS011;9959;49.798;9.928;2023-02-13T09:41:22;36.78;;;13.57;;
19623;SDS011;9959;49.798;9.928;2023-02-13T09:43:53;34.03;;;14.32;;
19623;SDS011;9959;49.798;9.928;2023-02-13T09:46:26;31.50;;;14.20;;
19623;SDS011;9959;49.798;9.928;2023-02-13T09:48:55;38.40;;;13.27;;
19623;SDS011;9959;49.798;9.928;2023-02-13T09:51:23;27.80;;;13.18;;
19623;SDS011;9959;49.798;9.928;2023-02-13T10:01:49;31.40;;;14.07;;
19623;SDS011;9959;49.798;9.928;2023-02-13T10:04:24;29.27;;;13.38;;
19623;SDS011;9959;49.798;9.928;2023-02-13T10:07:02;28.60;;;12.75;;
19623;SDS011;9959;49.798;9.928;2023-02-13T10:09:52;29.17;;;12.55;;
19623;SDS011;9959;49.798;9.928;2023-02-13T10:12:29;29.70;;;13.40;;
19623;SDS011;9959;49.798;9.928;2023-02-13T10:15:14;30.42;;;13.55;;
19623;SDS011;9959;49.798;9.928;2023-02-13T10:18:03;28.17;;;13.38;;
19623;SDS011;9959;49.798;9.928;2023-02-13T10:28:45;27.92;;;12.77;;
19623;SDS011;9959;49.798;9.928;2023-02-13T10:31:21;25.88;;;11.65;;
19623;SDS011;9959;49.798;9.928;2023-02-13T10:33:50;24.77;;;11.93;;
19623;SDS011;9959;49.798;9.928;2023-02-13T10:36:20;21.92;;;11.98;;
19623;SDS011;9959;49.798;9.928;2023-02-13T10:41:24;29.40;;;12.05;;
19623;SDS011;9959;49.798;9.928;2023-02-13T10:47:01;28.33;;;13.70;;
19623;SDS011;9959;49.798;9.928;2023-02-13T10:52:40;32.33;;;14.07;;
19623;SDS011;9959;49.798;9.928;2023-02-13T10:58:24;27.83;;;14.55;;
19623;SDS011;9959;49.798;9.928;2023-02-13T11:01:18;26.73;;;13.80;;
19623;SDS011;9959;49.798;9.928;2023-02-13T11:03:59;32.53;;;17.77;;
19623;SDS011;9959;49.798;9.928;2023-02-13T11:06:22;36.75;;;19.95;;
19623;SDS011;9959;49.798;9.928;2023-02-13T11:08:49;27.38;;;14.35;;
19623;SDS011;9959;49.798;9.928;2023-02-13T11:11:36;25.20;;;13.02;;
19623;SDS011;9959;49.798;9.928;2023-02-13T11:22:04;23.90;;;12.95;;
19623;SDS011;9959;49.798;9.928;2023-02-13T11:24:31;26.20;;;15.18;;
19623;SDS011;9959;49.798;9.928;2023-02-13T11:26:59;30.13;;;16.45;;
19623;SDS011;9959;49.798;9.928;2023-02-13T11:29:31;42.95;;;20.35;;
19623;SDS011;9959;49.798;9.928;2023-02-13T11:32:04;26.05;;;14.98;;
19623;SDS011;9959;49.798;9.928;2023-02-13T11:34:46;26.67;;;13.57;;
19623;SDS011;9959;49.798;9.928;2023-02-13T11:39:49;26.73;;;13.05;;
19623;SDS011;9959;49.798;9.928;2023-02-13T11:42:19;27.48;;;14.63;;
19623;SDS011;9959;49.798;9.928;2023-02-13T11:44:52;22.77;;;12.50;;
19623;SDS011;9959;49.798;9.928;2023-02-13T11:50:23;22.33;;;12.65;;
19623;SDS011;9959;49.798;9.928;2023-02-13T11:55:23;26.85;;;12.68;;
19623;SDS011;9959;49.798;9.928;2023-02-13T11:57:57;21.08;;;12.48;;
19623;SDS011;9959;49.798;9.928;2023-02-13T12:08:23;21.58;;;12.45;;
19623;SDS011;9959;49.798;9.928;2023-02-13T12:10:50;21.83;;;11.35;;
19623;SDS011;9959;49.798;9.928;2023-02-13T12:13:26;17.92;;;11.02;;
19623;SDS011;9959;49.798;9.928;2023-02-13T12:15:59;18.40;;;10.65;;
19623;SDS011;9959;49.798;9.928;2023-02-13T12:18:33;18.60;;;11.25;;
19623;SDS011;9959;49.798;9.928;2023-02-13T12:26:49;16.60;;;10.68;;
19623;SDS011;9959;49.798;9.928;2023-02-13T12:49:19;16.42;;;9.80;;
19623;SDS011;9959;49.798;9.928;2023-02-13T12:54:33;16.80;;;10.15;;
19623;SDS011;9959;49.798;9.928;2023-02-13T13:13:27;17.45;;;10.63;;
19623;SDS011;9959;49.798;9.928;2023-02-13T13:16:12;16.92;;;11.13;;
19623;SDS011;9959;49.798;9.928;2023-02-13T13:19:15;18.33;;;11.20;;
19623;SDS011;9959;49.798;9.928;2023-02-13T13:24:40;19.10;;;11.93;;
19623;SDS011;9959;49.798;9.928;2023-02-13T13:27:35;15.63;;;10.80;;
19623;SDS011;9959;49.798;9.928;2023-02-13T13:30:26;19.90;;;11.25;;
19623;SDS011;9959;49.798;9.928;2023-02-13T13:32:57;19.02;;;11.88;;
19623;SDS011;9959;49.798;9.928;2023-02-13T13:35:23;18.23;;;11.27;;
19623;SDS011;9959;49.798;9.928;2023-02-13T13:37:52;21.33;;;11.88;;
19623;SDS011;9959;49.798;9.928;2023-02-13T13:40:38;16.20;;;10.90;;
19623;SDS011;9959;49.798;9.928;2023-02-13T13:43:13;16.50;;;10.23;;
19623;SDS011;9959;49.798;9.928;2023-02-13T13:51:15;18.33;;;11.75;;
19623;SDS011;9959;49.798;9.928;2023-02-13T13:56:23;18.85;;;11.82;;
19623;SDS011;9959;49.798;9.928;2023-02-13T13:58:51;16.88;;;11.38;;
19623;SDS011;9959;49.798;9.928;2023-02-13T14:06:27;19.42;;;12.68;;
19623;SDS011;9959;49.798;9.928;2023-02-13T14:09:06;20.08;;;11.82;;
19623;SDS011;9959;49.798;9.928;2023-02-13T14:16:55;18.85;;;11.80;;
19623;SDS011;9959;49.798;9.928;2023-02-13T14:24:55;18.80;;;12.18;;
19623;SDS011;9959;49.798;9.928;2023-02-13T14:27:36;17.65;;;11.43;;
19623;SDS011;9959;49.798;9.928;2023-02-13T14:30:05;15.10;;;11.07;;
19623;SDS011;9959;49.798;9.928;2023-02-13T14:32:51;19.35;;;12.30;;
19623;SDS011;9959;49.798;9.928;2023-02-13T14:35:22;18.65;;;12.40;;
19623;SDS011;9959;49.798;9.928;2023-02-13T14:37:55;16.77;;;12.45;;
19623;SDS011;9959;49.798;9.928;2023-02-13T14:42:58;18.42;;;12.13;;
19623;SDS011;9959;49.798;9.928;2023-02-13T14:45:52;18.38;;;12.57;;
19623;SDS011;9959;49.798;9.928;2023-02-13T14:48:39;18.23;;;11.77;;
19623;SDS011;9959;49.798;9.928;2023-02-13T14:54:24;17.10;;;11.85;;
19623;SDS011;9959;49.798;9.928;2023-02-13T14:56:52;19.08;;;12.48;;
19623;SDS011;9959;49.798;9.928;2023-02-13T14:59:24;17.00;;;12.10;;
19623;SDS011;9959;49.798;9.928;2023-02-13T15:01:59;16.52;;;11.52;;
19623;SDS011;9959;49.798;9.928;2023-02-13T15:04:38;17.27;;;12.13;;
19623;SDS011;9959;49.798;9.928;2023-02-13T15:07:17;17.45;;;11.32;;
19623;SDS011;9959;49.798;9.928;2023-02-13T15:09:50;17.30;;;11.60;;
19623;SDS011;9959;49.798;9.928;2023-02-13T15:12:31;16.80;;;12.43;;
19623;SDS011;9959;49.798;9.928;2023-02-13T15:15:01;19.52;;;12.00;;
19623;SDS011;9959;49.798;9.928;2023-02-13T15:17:43;19.98;;;13.27;;
19623;SDS011;9959;49.798;9.928;2023-02-13T15:20:22;19.95;;;13.30;;
19623;SDS011;9959;49.798;9.928;2023-02-13T15:22:52;22.27;;;13.25;;
19623;SDS011;9959;49.798;9.928;2023-02-13T15:25:22;22.13;;;13.25;;
19623;SDS011;9959;49.798;9.928;2023-02-13T15:27:55;21.58;;;13.65;;
19623;SDS011;9959;49.798;9.928;2023-02-13T15:30:28;22.92;;;14.13;;
19623;SDS011;9959;49.798;9.928;2023-02-13T15:32:57;26.52;;;14.15;;
19623;SDS011;9959;49.798;9.928;2023-02-13T15:35:30;23.52;;;13.88;;
19623;SDS011;9959;49.798;9.928;2023-02-13T15:38:23;25.00;;;13.25;;
19623;SDS011;9959;49.798;9.928;2023-02-13T15:43:42;19.50;;;12.40;;
19623;SDS011;9959;49.798;9.928;2023-02-13T15:46:24;19.75;;;12.50;;
19623;SDS011;9959;49.798;9.928;2023-02-13T15:48:54;18.65;;;12.20;;
19623;SDS011;9959;49.798;9.928;2023-02-13T15:51:24;19.58;;;12.52;;
19623;SDS011;9959;49.798;9.928;2023-02-13T15:53:53;20.15;;;12.75;;
19623;SDS011;9959;49.798;9.928;2023-02-13T15:56:23;19.52;;;13.35;;
19623;SDS011;9959;49.798;9.928;2023-02-13T15:58:51;19.35;;;11.93;;
19623;SDS011;9959;49.798;9.928;2023-02-13T16:01:19;18.38;;;12.55;;
19623;SDS011;9959;49.798;9.928;2023-02-13T16:06:23;22.10;;;13.82;;
19623;SDS011;9959;49.798;9.928;2023-02-13T16:08:50;22.92;;;14.30;;
19623;SDS011;9959;49.798;9.928;2023-02-13T16:11:38;24.08;;;13.95;;
19623;SDS011;9959;49.798;9.928;2023-02-13T16:16:42;25.73;;;14.38;;
19623;SDS011;9959;49.798;9.928;2023-02-13T16:25:24;30.73;;;14.15;;
19623;SDS011;9959;49.798;9.928;2023-02-13T16:27:57;26.52;;;14.60;;
19623;SDS011;9959;49.798;9.928;2023-02-13T16:33:10;36.83;;;16.58;;
19623;SDS011;9959;49.798;9.928;2023-02-13T16:38:38;32.22;;;16.10;;
19623;SDS011;9959;49.798;9.928;2023-02-13T16:43:49;31.33;;;16.00;;
19623;SDS011;9959;49.798;9.928;2023-02-13T16:46:21;34.63;;;16.35;;
19623;SDS011;9959;49.798;9.928;2023-02-13T16:54:22;40.05;;;17.67;;
19623;SDS011;9959;49.798;9.928;2023-02-13T16:59:47;43.97;;;18.77;;
19623;SDS011;9959;49.798;9.928;2023-02-13T17:07:37;36.25;;;17.92;;
19623;SDS011;9959;49.798;9.928;2023-02-13T17:13:00;43.22;;;19.88;;
19623;SDS011;9959;49.798;9.928;2023-02-13T17:15:40;42.85;;;20.35;;
19623;SDS011;9959;49.798;9.928;2023-02-13T17:18:09;47.08;;;20.33;;
19623;SDS011;9959;49.798;9.928;2023-02-13T17:20:36;42.95;;;19.30;;
19623;SDS011;9959;49.798;9.928;2023-02-13T17:23:07;40.33;;;19.33;;
19623;SDS011;9959;49.798;9.928;2023-02-13T17:25:43;44.05;;;19.85;;
19623;SDS011;9959;49.798;9.928;2023-02-13T17:28:15;46.45;;;20.75;;
19623;SDS011;9959;49.798;9.928;2023-02-13T17:30:55;46.55;;;20.45;;
19623;SDS011;9959;49.798;9.928;2023-02-13T17:33:25;44.65;;;20.50;;
19623;SDS011;9959;49.798;9.928;2023-02-13T17:35:54;45.83;;;20.73;;
19623;SDS011;9959;49.798;9.928;2023-02-13T17:38:21;50.33;;;22.25;;
19623;SDS011;9959;49.798;9.928;2023-02-13T17:40:48;48.80;;;21.15;;
19623;SDS011;9959;49.798;9.928;2023-02-13T17:43:19;45.75;;;21.30;;
19623;SDS011;9959;49.798;9.928;2023-02-13T17:45:57;48.90;;;21.38;;
19623;SDS011;9959;49.798;9.928;2023-02-13T17:48:26;52.45;;;23.35;;
19623;SDS011;9959;49.798;9.928;2023-02-13T17:50:53;49.42;;;22.60;;
19623;SDS011;9959;49.798;9.928;2023-02-13T17:53:27;49.10;;;22.45;;
19623;SDS011;9959;49.798;9.928;2023-02-13T17:55:55;60.42;;;25.30;;
19623;SDS011;9959;49.798;9.928;2023-02-13T17:58:32;50.50;;;22.77;;
19623;SDS011;9959;49.798;9.928;2023-02-13T18:00:59;49.90;;;21.38;;
19623;SDS011;9959;49.798;9.928;2023-02-13T18:03:26;62.40;;;24.98;;
19623;SDS011;9959;49.798;9.928;2023-02-13T18:05:53;59.35;;;25.58;;
19623;SDS011;9959;49.798;9.928;2023-02-13T18:08:21;65.95;;;27.95;;
19623;SDS011;9959;49.798;9.928;2023-02-13T18:10:51;63.78;;;27.38;;
19623;SDS011;9959;49.798;9.928;2023-02-13T18:13:21;55.58;;;24.67;;
19623;SDS011;9959;49.798;9.928;2023-02-13T18:15:48;67.47;;;27.65;;
19623;SDS011;9959;49.798;9.928;2023-02-13T18:18:15;61.95;;;26.30;;
19623;SDS011;9959;49.798;9.928;2023-02-13T18:20:43;64.55;;;27.90;;
19623;SDS011;9959;49.798;9.928;2023-02-13T18:23:10;64.60;;;26.13;;
19623;SDS011;9959;49.798;9.928;2023-02-13T18:25:37;63.75;;;26.42;;